Algiers, Louisiana
Current Conditions -  °F | °C
As of 10:15 PM on Sunday 21 Dec 2014 (Local Time) from KVSH Reporting Station
Overcast Overcast  
Wind Chill: 57°   Ceiling: 500
Heat Index: 57°   Visibility: 7mi
Dew Point: 52°   Wind: 0mph
Humidity: 82%   Direction: NA
Pressure: 29.97"   Gusts: NA
Location:  29.935°N, 90.0314°W
Report Text: KVSH 220415Z AUTO 00000KT 7SM OVC005 14/11 A2997 RMK AO1
Loading
Personal Weather Stations






























Interactive Weather Map New forecast layout! Learn more

10-Day Weather Forecast

Advertisements
Track Severe Weather on mobile